Bogucany, Russia
Current Conditions -  °F | °C
As of 4:00 PM on Wednesday 28 Jan 2015 (Local Time) from UIBB Reporting Station
Broken Clouds Broken Clouds  
Wind Chill: -17°   Ceiling: 20000
Heat Index:   Visibility: 6mi
Dew Point: -9°   Wind: 13mph
Humidity: 61%   Direction: 260°W
Pressure: 30.21"   Gusts: NA
Location:  58.38°N, 97.45°E
Report Text: UIBB 280900Z 26006MPS 9999 FEW020CB BKN200 M17/M23 Q1023 NOSIGRMK QFE724/0966 30820540
Loading
Personal Weather Stations






























Interactive Weather Map New forecast layout! Learn more

10-Day Weather Forecast

Advertisements
Track Severe Weather on mobile